createdAt,value
2022-12-26T03:19:54.792Z,9.4
2022-12-26T05:10:19.033Z,9.1
2022-12-26T05:20:21.391Z,9.2
2022-12-26T05:40:26.181Z,9.2
2022-12-26T06:50:41.733Z,9
2022-12-26T07:20:48.197Z,9.1
2022-12-26T08:51:07.617Z,9.8
2022-12-26T09:31:15.694Z,10
2022-12-26T10:01:21.321Z,10.2
2022-12-26T10:01:43.217Z,10.2
2022-12-26T10:11:30.623Z,10.2
2022-12-26T10:21:32.825Z,10.2
2022-12-26T10:31:35.415Z,10.2
2022-12-26T10:41:37.581Z,10.3
2022-12-26T10:51:40.042Z,10.3
2022-12-26T11:01:42.275Z,10.2
2022-12-26T11:11:44.175Z,10.3
2022-12-26T11:21:46.022Z,10
2022-12-26T11:31:48.474Z,10.1
2022-12-26T11:41:50.996Z,10.4
2022-12-26T11:51:58.684Z,10.2
2022-12-26T12:01:55.337Z,10.5
2022-12-26T12:11:57.313Z,10.6
2022-12-26T12:21:59.453Z,10.7
2022-12-26T12:32:01.236Z,10.5
2022-12-26T12:42:03.219Z,8.9
2022-12-26T12:52:05.006Z,8.4
2022-12-26T13:02:10.332Z,8.2
2022-12-26T13:12:09.388Z,8.1
2022-12-26T13:22:11.610Z,7.9
2022-12-26T13:32:13.414Z,7.8
2022-12-26T13:42:15.933Z,7.7
2022-12-26T13:52:18.313Z,7.7
2022-12-26T14:02:21.211Z,7.4
2022-12-26T14:12:22.575Z,7.2
2022-12-26T14:22:24.626Z,7
2022-12-26T14:32:27.205Z,6.9
2022-12-26T14:42:29.620Z,6.8
2022-12-26T14:52:31.837Z,6.6
2022-12-26T15:12:36.701Z,6.4
2022-12-26T15:22:38.489Z,6.3
2022-12-26T15:32:40.175Z,6.2
2022-12-26T15:42:41.884Z,6.1
2022-12-26T15:52:43.644Z,5.9
2022-12-26T16:02:45.895Z,5.7
2022-12-26T16:12:47.953Z,5.4
2022-12-26T16:22:50.256Z,5.2
2022-12-26T16:32:52.481Z,5.1
2022-12-26T16:42:54.739Z,5.1
2022-12-26T16:52:56.985Z,5.1
2022-12-26T17:02:59.213Z,5.1
2022-12-26T17:13:01.368Z,5.2
2022-12-26T17:23:03.283Z,5.1
2022-12-26T17:33:05.366Z,5
2022-12-26T17:43:07.900Z,4.9
2022-12-26T18:03:12.526Z,4.6
2022-12-26T18:13:14.476Z,4.5
2022-12-26T18:23:16.959Z,4.4
2022-12-26T18:33:19.471Z,4.4
2022-12-26T18:43:22.071Z,4.2
2022-12-26T18:53:24.178Z,4.1
2022-12-26T19:03:26.636Z,3.8
2022-12-26T19:13:29.026Z,3.7
2022-12-26T19:23:31.403Z,3.7
2022-12-26T19:33:33.772Z,3.6
2022-12-26T19:43:35.577Z,3.5
2022-12-26T19:53:37.963Z,3.5
2022-12-26T20:03:40.274Z,3.5
2022-12-26T20:13:42.664Z,3.4
2022-12-26T20:23:45.010Z,3.4
2022-12-26T20:33:47.533Z,3.3
2022-12-26T20:53:51.348Z,3.2
2022-12-26T21:03:53.545Z,3.2
2022-12-26T21:13:55.467Z,3.1
2022-12-26T21:23:57.560Z,3.2
2022-12-26T21:33:59.987Z,3.3
2022-12-26T21:44:02.154Z,3.4
2022-12-26T21:54:04.392Z,3.6
2022-12-26T22:04:06.686Z,3.5
2022-12-26T22:14:08.361Z,3.3
2022-12-26T22:24:10.971Z,3.2
2022-12-26T22:34:13.224Z,3.1
2022-12-26T22:44:15.847Z,3.1
2022-12-26T22:54:17.926Z,3
2022-12-26T23:04:20.482Z,3.4
2022-12-26T23:14:22.999Z,3.4
2022-12-26T23:24:24.961Z,3.4
2022-12-26T23:44:28.649Z,3.5
2022-12-26T23:54:31.077Z,3.4
